createdAt,value
2019-05-07T00:01:42.321Z,6.70
2019-05-07T00:04:12.908Z,6.60
2019-05-07T00:06:43.518Z,6.60
2019-05-07T00:09:14.226Z,6.70
2019-05-07T00:11:44.225Z,6.70
2019-05-07T00:14:14.360Z,6.60
2019-05-07T00:16:44.189Z,6.50
2019-05-07T00:19:14.105Z,6.50
2019-05-07T00:21:43.917Z,6.50
2019-05-07T00:24:13.808Z,6.50
2019-05-07T00:26:43.777Z,6.50
2019-05-07T00:29:13.661Z,6.50
2019-05-07T00:31:43.525Z,6.40
2019-05-07T00:34:14.432Z,6.40
2019-05-07T00:37:06.605Z,6.30
2019-05-07T00:39:42.776Z,6.40
2019-05-07T00:42:37.848Z,6.40
2019-05-07T00:47:48.640Z,6.30
2019-05-07T00:50:24.782Z,6.30
2019-05-07T00:52:54.985Z,6.20
2019-05-07T01:12:53.253Z,6.10
2019-05-07T01:15:30.713Z,6.00
2019-05-07T01:17:55.291Z,6.00
2019-05-07T01:20:25.936Z,5.90
2019-05-07T01:22:56.595Z,5.90
2019-05-07T01:27:56.181Z,5.90
2019-05-07T01:30:26.362Z,5.90
2019-05-07T01:35:54.353Z,5.90
2019-05-07T01:38:24.589Z,5.80
2019-05-07T01:40:54.850Z,5.90
2019-05-07T01:50:53.727Z,6.00
2019-05-07T01:53:23.886Z,5.90
2019-05-07T01:55:54.131Z,5.80
2019-05-07T01:58:24.381Z,5.70
2019-05-07T02:00:54.652Z,5.60
2019-05-07T02:03:43.937Z,5.60
2019-05-07T02:06:32.769Z,5.70
2019-05-07T02:09:12.967Z,5.70
2019-05-07T02:11:44.979Z,5.70
2019-05-07T02:14:15.111Z,5.70
2019-05-07T02:16:45.270Z,5.70
2019-05-07T02:19:15.586Z,5.60
2019-05-07T02:21:45.740Z,5.60
2019-05-07T02:26:45.521Z,5.50
2019-05-07T02:29:15.780Z,5.50
2019-05-07T02:31:46.010Z,5.50
2019-05-07T02:34:16.194Z,5.40
2019-05-07T02:36:46.632Z,5.40
2019-05-07T02:39:25.748Z,5.40
2019-05-07T02:41:56.309Z,5.40
2019-05-07T02:44:26.571Z,5.40
2019-05-07T02:47:03.989Z,5.40
2019-05-07T02:49:38.798Z,5.40
2019-05-07T02:52:18.668Z,5.40
2019-05-07T02:55:13.527Z,5.40
2019-05-07T02:57:43.717Z,5.40
2019-05-07T03:00:19.119Z,5.40
2019-05-07T03:02:46.917Z,5.30
2019-05-07T03:05:16.861Z,5.30
2019-05-07T03:12:45.782Z,5.40
2019-05-07T03:15:15.934Z,5.40
2019-05-07T03:17:45.877Z,5.40
2019-05-07T03:20:22.892Z,5.40
2019-05-07T03:22:53.805Z,5.50
2019-05-07T03:25:28.318Z,5.50
2019-05-07T03:30:35.964Z,5.40
2019-05-07T03:33:16.575Z,5.40
2019-05-07T03:35:55.619Z,5.40
2019-05-07T03:40:53.238Z,5.50
2019-05-07T03:43:25.592Z,5.60
2019-05-07T03:46:13.814Z,5.60
2019-05-07T03:48:44.222Z,5.50
2019-05-07T03:51:14.145Z,5.50
2019-05-07T03:53:44.053Z,5.40
2019-05-07T03:56:14.003Z,5.40
2019-05-07T03:58:43.903Z,5.40
2019-05-07T04:01:13.900Z,5.40
2019-05-07T04:03:44.939Z,5.50
2019-05-07T04:06:15.141Z,5.50
2019-05-07T04:08:45.041Z,5.50
2019-05-07T04:11:14.872Z,5.50
2019-05-07T04:13:44.901Z,5.50
2019-05-07T04:16:14.721Z,5.50
2019-05-07T04:18:44.538Z,5.60
2019-05-07T04:21:14.482Z,5.50
2019-05-07T04:23:44.382Z,5.50
2019-05-07T04:26:26.833Z,5.60
2019-05-07T04:29:04.844Z,5.60
2019-05-07T04:31:37.046Z,5.60
2019-05-07T04:34:13.602Z,5.70
2019-05-07T04:36:46.309Z,5.70
2019-05-07T04:39:16.266Z,5.80
2019-05-07T04:41:46.081Z,5.80
2019-05-07T04:44:16.145Z,5.90
2019-05-07T04:46:48.161Z,5.90
2019-05-07T04:49:17.504Z,5.90
2019-05-07T04:51:59.665Z,6.00
2019-05-07T04:54:29.477Z,6.00
2019-05-07T04:56:59.604Z,6.00
2019-05-07T04:59:29.463Z,6.00
2019-05-07T05:02:10.084Z,6.00
2019-05-07T05:04:40.123Z,6.10
2019-05-07T05:07:09.954Z,6.10
2019-05-07T05:09:42.469Z,6.20
2019-05-07T05:12:13.163Z,6.30
2019-05-07T05:17:13.861Z,6.40
2019-05-07T05:19:43.996Z,6.50
2019-05-07T05:22:25.688Z,6.50
2019-05-07T05:25:14.597Z,6.50
2019-05-07T05:27:48.703Z,6.50
2019-05-07T05:32:54.527Z,6.60
2019-05-07T05:37:53.572Z,6.80
2019-05-07T05:43:05.506Z,6.90
2019-05-07T05:45:42.461Z,7.00
2019-05-07T05:48:13.595Z,7.00
2019-05-07T05:50:53.646Z,7.20
2019-05-07T05:53:29.941Z,7.30
2019-05-07T05:58:52.527Z,7.50
2019-05-07T06:01:42.686Z,7.60
2019-05-07T06:07:11.042Z,7.70
2019-05-07T06:09:58.276Z,7.80
2019-05-07T06:15:44.836Z,7.90
2019-05-07T06:18:33.781Z,8.00
2019-05-07T06:21:13.393Z,8.10
2019-05-07T06:28:48.466Z,8.60
2019-05-07T06:33:47.598Z,8.90
2019-05-07T06:44:22.363Z,9.00
2019-05-07T06:46:52.815Z,8.80
2019-05-07T06:49:22.796Z,8.70
2019-05-07T06:56:52.605Z,8.60
2019-05-07T06:59:47.953Z,8.60
2019-05-07T07:07:55.075Z,9.00
2019-05-07T07:10:45.697Z,9.20
2019-05-07T07:15:45.000Z,9.40
2019-05-07T07:18:14.877Z,9.50
2019-05-07T07:23:13.980Z,9.90
2019-05-07T07:28:13.103Z,10.50
2019-05-07T07:30:53.101Z,10.60
2019-05-07T07:35:53.495Z,10.90
2019-05-07T07:38:32.967Z,11.10
2019-05-07T07:43:52.646Z,11.50
2019-05-07T07:46:22.574Z,11.70
2019-05-07T07:49:06.601Z,12.10
2019-05-07T08:07:05.121Z,12.60
2019-05-07T08:09:35.791Z,12.70
2019-05-07T08:14:35.433Z,12.60
2019-05-07T08:17:07.363Z,12.70
2019-05-07T08:19:37.284Z,12.80
2019-05-07T08:22:07.227Z,12.90
2019-05-07T08:37:24.561Z,12.60
2019-05-07T08:45:02.950Z,12.70
2019-05-07T08:50:14.437Z,12.80
2019-05-07T08:52:44.323Z,12.50
2019-05-07T08:55:14.353Z,12.40
2019-05-07T08:57:45.899Z,12.30
2019-05-07T09:07:45.436Z,12.90
2019-05-07T09:12:45.212Z,13.00
2019-05-07T09:33:29.423Z,13.60
2019-05-07T09:35:59.321Z,13.60
2019-05-07T09:38:29.485Z,13.80
2019-05-07T09:40:59.440Z,13.70
2019-05-07T09:43:29.260Z,13.60
2019-05-07T09:45:59.081Z,13.60
2019-05-07T09:53:27.737Z,14.00
2019-05-07T10:00:57.840Z,14.10
2019-05-07T10:03:27.725Z,14.10
2019-05-07T10:05:57.609Z,14.30
2019-05-07T10:08:27.484Z,14.40
2019-05-07T10:16:07.673Z,14.10
2019-05-07T10:18:37.781Z,14.10
2019-05-07T10:26:06.461Z,13.50
2019-05-07T10:28:36.660Z,13.90
2019-05-07T10:31:06.656Z,14.00
2019-05-07T10:33:36.786Z,13.50
2019-05-07T10:43:34.757Z,14.40
2019-05-07T10:46:14.937Z,14.40
2019-05-07T10:51:21.817Z,14.10
2019-05-07T11:09:04.268Z,12.60
2019-05-07T11:24:05.273Z,12.30
2019-05-07T11:29:04.975Z,12.50
2019-05-07T11:34:04.113Z,12.70
2019-05-07T11:36:34.400Z,12.90
2019-05-07T11:47:06.665Z,13.90
2019-05-07T11:49:54.317Z,14.20
2019-05-07T11:52:35.228Z,14.40
2019-05-07T12:02:32.716Z,14.70
2019-05-07T12:05:02.536Z,14.50
2019-05-07T12:07:32.835Z,14.70
2019-05-07T12:10:04.848Z,14.80
2019-05-07T12:12:34.502Z,14.90
2019-05-07T12:25:27.267Z,14.50
2019-05-07T12:48:26.106Z,15.00
2019-05-07T12:50:55.981Z,15.00
2019-05-07T12:53:43.492Z,15.00
2019-05-07T13:01:23.873Z,14.70
2019-05-07T13:04:12.396Z,14.50
2019-05-07T13:07:02.519Z,14.40
2019-05-07T13:09:32.921Z,14.30
2019-05-07T13:24:32.381Z,15.20
2019-05-07T13:27:03.259Z,15.20
2019-05-07T13:34:34.066Z,14.60
2019-05-07T13:42:31.992Z,14.90
2019-05-07T14:02:46.583Z,14.70
2019-05-07T14:05:16.557Z,14.70
2019-05-07T14:07:46.957Z,14.70
2019-05-07T14:10:18.387Z,14.60
2019-05-07T14:45:52.275Z,14.20
2019-05-07T15:00:51.993Z,14.30
2019-05-07T15:08:22.527Z,14.10
2019-05-07T15:10:52.639Z,14.10
2019-05-07T15:13:22.661Z,14.20
2019-05-07T15:18:32.494Z,14.10
2019-05-07T15:21:03.269Z,14.00
2019-05-07T15:26:05.112Z,13.70
2019-05-07T15:28:36.084Z,13.60
2019-05-07T15:36:16.592Z,13.60
2019-05-07T15:38:46.741Z,13.60
2019-05-07T15:41:16.617Z,13.60
2019-05-07T15:53:52.223Z,14.10
2019-05-07T15:58:51.889Z,14.10
2019-05-07T16:01:22.177Z,14.10
2019-05-07T16:06:23.404Z,13.80
2019-05-07T16:08:56.476Z,13.70
2019-05-07T16:14:14.557Z,13.80
2019-05-07T16:19:23.953Z,13.80
2019-05-07T16:21:53.941Z,13.80
2019-05-07T16:24:26.907Z,13.80
2019-05-07T16:29:29.113Z,14.00
2019-05-07T16:36:57.479Z,14.10
2019-05-07T16:41:56.673Z,14.30
2019-05-07T16:44:26.566Z,14.40
2019-05-07T16:46:56.456Z,14.30
2019-05-07T16:49:26.253Z,14.30
2019-05-07T16:51:57.353Z,14.30
2019-05-07T17:05:12.813Z,14.30
2019-05-07T17:15:22.950Z,14.40
2019-05-07T17:38:09.827Z,13.50
2019-05-07T17:43:08.028Z,13.30
2019-05-07T17:45:37.832Z,13.10
2019-05-07T17:50:43.172Z,12.80
2019-05-07T17:53:13.053Z,12.80
2019-05-07T17:55:42.956Z,12.80
2019-05-07T17:58:13.056Z,12.70
2019-05-07T18:00:45.041Z,12.70
2019-05-07T18:03:34.398Z,12.50
2019-05-07T18:06:06.516Z,12.40
2019-05-07T18:08:36.429Z,12.30
2019-05-07T18:11:17.330Z,12.20
2019-05-07T18:13:37.981Z,11.90
2019-05-07T18:16:24.439Z,11.70
2019-05-07T18:18:54.306Z,11.50
2019-05-07T18:21:24.201Z,11.30
2019-05-07T18:23:54.405Z,11.20
2019-05-07T18:26:30.321Z,11.10
2019-05-07T18:28:55.734Z,11.00
2019-05-07T18:31:46.086Z,10.80
2019-05-07T18:34:16.064Z,10.70
2019-05-07T18:36:46.045Z,10.60
2019-05-07T18:39:15.861Z,10.50
2019-05-07T18:41:45.673Z,10.30
2019-05-07T18:44:16.259Z,10.20
2019-05-07T18:46:46.401Z,10.10
2019-05-07T18:49:16.295Z,9.90
2019-05-07T18:51:46.356Z,9.90
2019-05-07T19:01:46.541Z,9.50
2019-05-07T19:04:16.610Z,9.30
2019-05-07T19:06:46.797Z,9.20
2019-05-07T19:09:16.689Z,9.20
2019-05-07T19:11:46.557Z,9.10
2019-05-07T19:14:16.366Z,9.00
2019-05-07T19:16:46.345Z,8.90
2019-05-07T19:19:16.184Z,8.80
2019-05-07T19:21:46.045Z,8.80
2019-05-07T19:24:16.196Z,8.70
2019-05-07T19:26:46.008Z,8.70
2019-05-07T19:29:15.876Z,8.60
2019-05-07T19:31:45.752Z,8.50
2019-05-07T19:34:15.700Z,8.50
2019-05-07T19:41:44.491Z,8.10
2019-05-07T19:44:14.405Z,8.00
2019-05-07T19:46:44.233Z,7.90
2019-05-07T19:49:14.016Z,7.90
2019-05-07T19:51:43.833Z,7.80
2019-05-07T19:54:13.631Z,7.80
2019-05-07T19:56:43.954Z,7.70
2019-05-07T19:59:13.947Z,7.70
2019-05-07T20:01:48.111Z,7.60
2019-05-07T20:06:47.305Z,7.50
2019-05-07T20:09:19.865Z,7.50
2019-05-07T20:11:52.149Z,7.40
2019-05-07T20:14:22.336Z,7.50
2019-05-07T20:16:53.255Z,7.40
2019-05-07T20:19:23.404Z,7.40
2019-05-07T20:21:53.334Z,7.40
2019-05-07T20:24:23.173Z,7.50
2019-05-07T20:26:53.078Z,7.40
2019-05-07T20:29:23.149Z,7.40
2019-05-07T20:31:53.363Z,7.40
2019-05-07T20:34:23.239Z,7.40
2019-05-07T20:36:53.108Z,7.40
2019-05-07T20:39:23.389Z,7.50
2019-05-07T20:41:53.290Z,7.50
2019-05-07T20:44:23.096Z,7.40
2019-05-07T20:49:23.476Z,7.40
2019-05-07T20:54:33.189Z,7.30
2019-05-07T20:59:52.404Z,7.30
2019-05-07T21:02:22.795Z,7.30
2019-05-07T21:04:52.831Z,7.20
2019-05-07T21:07:22.713Z,7.20
2019-05-07T21:09:53.098Z,7.10
2019-05-07T21:12:22.909Z,7.10
2019-05-07T21:17:22.805Z,7.00
2019-05-07T21:19:53.109Z,7.00
2019-05-07T21:22:23.180Z,7.00
2019-05-07T21:27:23.296Z,7.00
2019-05-07T21:29:53.076Z,7.00
2019-05-07T21:32:23.297Z,6.90
2019-05-07T21:34:53.575Z,6.90
2019-05-07T21:39:53.254Z,6.80
2019-05-07T21:42:23.162Z,6.70
2019-05-07T21:44:53.048Z,6.70
2019-05-07T21:47:22.847Z,6.70
2019-05-07T21:52:25.568Z,6.60
2019-05-07T21:55:04.577Z,6.50
2019-05-07T21:57:44.633Z,6.40
2019-05-07T22:00:33.670Z,6.40
2019-05-07T22:03:08.717Z,6.30
2019-05-07T22:05:44.400Z,6.20
2019-05-07T22:08:14.236Z,6.20
2019-05-07T22:10:44.110Z,6.20
2019-05-07T22:13:13.913Z,6.10
2019-05-07T22:15:43.781Z,6.10
2019-05-07T22:20:43.205Z,6.10
2019-05-07T22:23:13.537Z,6.00
2019-05-07T22:31:02.436Z,5.80
2019-05-07T22:33:43.868Z,5.80
2019-05-07T22:36:13.633Z,5.70
2019-05-07T22:38:43.724Z,5.70
2019-05-07T22:41:13.880Z,5.70
2019-05-07T22:43:43.756Z,5.60
2019-05-07T22:46:13.920Z,5.60
2019-05-07T22:48:43.972Z,5.60
2019-05-07T22:51:13.947Z,5.60
2019-05-07T22:53:43.753Z,5.60
2019-05-07T22:56:14.115Z,5.60
2019-05-07T22:58:48.537Z,5.60
2019-05-07T23:01:18.508Z,5.60
2019-05-07T23:06:17.565Z,5.60
2019-05-07T23:08:47.456Z,5.70
2019-05-07T23:13:46.492Z,5.70
2019-05-07T23:16:16.309Z,5.70
2019-05-07T23:18:46.117Z,5.70
2019-05-07T23:21:15.935Z,5.80
2019-05-07T23:26:15.057Z,5.90
2019-05-07T23:28:44.879Z,5.80
2019-05-07T23:31:14.772Z,5.80
2019-05-07T23:36:13.834Z,5.90
2019-05-07T23:41:32.978Z,5.90
2019-05-07T23:44:19.521Z,5.90
2019-05-07T23:46:49.486Z,5.90
2019-05-07T23:49:23.159Z,5.90
2019-05-07T23:51:53.264Z,5.90
2019-05-07T23:54:23.624Z,5.80
2019-05-07T23:57:05.429Z,5.80
2019-05-07T23:59:24.927Z,5.70
